Time;durP1;ratioP1;P1;durP2;ratioP2;P2;SDS_P1;SDS_P2;PMS_P1;PMS_P2;Temp;Humidity;BMP_temperature;BMP_pressure;BME280_temperature;BME280_humidity;BME280_pressure;Samples;Min_cycle;Max_cycle;Signal;HPM_P1;HPM_P2
2023/01/17 00:00:31;;;;;;;4.25;2.20;;;;;;;3.13;96.63;95312.78;2569921;28;20057;-89
2023/01/17 00:02:07;;;;;;;5.32;2.13;;;;;;;3.20;96.48;95308.13;2568698;28;20058;-88
2023/01/17 00:03:23;;;;;;;5.53;2.22;;;;;;;3.10;97.16;95313.75;2571016;28;20644;-87
2023/01/17 00:10:57;;;;;;;3.17;2.17;;;;;;;3.51;92.54;95307.44;2570461;28;20119;-88
2023/01/17 00:12:13;;;;;;;3.75;1.42;;;;;;;3.27;94.60;95304.31;2568891;28;20525;-87
2023/01/17 00:13:28;;;;;;;3.70;1.48;;;;;;;3.34;93.72;95302.25;2572154;28;20465;-88
2023/01/17 00:14:44;;;;;;;7.65;3.22;;;;;;;3.49;93.66;95303.25;2571557;28;20137;-89
2023/01/17 00:15:59;;;;;;;4.47;2.28;;;;;;;3.30;94.34;95316.25;2574463;28;20085;-88
2023/01/17 00:17:15;;;;;;;5.20;2.22;;;;;;;3.34;93.59;95313.47;2573626;28;20058;-88
2023/01/17 00:18:31;;;;;;;2.78;1.40;;;;;;;3.29;94.38;95315.44;2568765;28;20065;-88
2023/01/17 00:26:10;;;;;;;2.28;1.40;;;;;;;3.63;92.09;95307.72;2571908;28;20513;-88
2023/01/17 01:34:23;;;;;;;0.38;0.15;;;;;;;5.24;74.10;95350.13;2569952;28;20059;-91
2023/01/17 01:35:40;;;;;;;0.25;0.25;;;;;;;5.33;72.91;95349.59;2571205;28;20448;-88
2023/01/17 01:36:56;;;;;;;0.50;0.40;;;;;;;5.19;74.55;95347.81;2571358;28;20050;-88
2023/01/17 01:38:11;;;;;;;0.60;0.28;;;;;;;5.29;73.06;95355.03;2571845;28;20046;-88
2023/01/17 01:39:27;;;;;;;0.40;0.40;;;;;;;5.33;72.99;95346.19;2571286;28;20402;-87
2023/01/17 01:40:46;;;;;;;1.67;0.45;;;;;;;5.37;72.59;95345.06;2571555;28;20062;-90
2023/01/17 01:42:01;;;;;;;1.15;0.57;;;;;;;5.39;72.81;95357.97;2571513;28;20485;-87
2023/01/17 01:43:20;;;;;;;0.38;0.32;;;;;;;5.37;72.87;95361.47;2572636;28;20101;-88
2023/01/17 01:44:52;;;;;;;1.13;0.60;;;;;;;5.31;72.24;95351.44;2572643;28;20077;-90
2023/01/17 01:46:10;;;;;;;;;;;;;;;5.43;71.44;95354.25;2572279;28;20058;-92
2023/01/17 01:47:39;;;;;;;0.10;0.10;;;;;;;5.32;71.51;95353.13;2572305;28;19944;-92
2023/01/17 01:49:18;;;;;;;0.57;0.57;;;;;;;5.49;70.40;95356.50;2575220;28;20073;-91
2023/01/17 01:50:36;;;;;;;2.50;0.70;;;;;;;5.45;70.89;95358.47;2572748;28;20050;-88
2023/01/17 01:51:58;;;;;;;1.02;0.60;;;;;;;5.51;70.85;95354.63;2570599;28;20106;-91
2023/01/17 01:53:14;;;;;;;1.38;0.50;;;;;;;5.52;70.98;95358.94;2570677;28;20547;-91
2023/01/17 01:54:39;;;;;;;1.02;0.73;;;;;;;5.49;70.64;95359.94;2573910;28;20050;-89
2023/01/17 01:55:55;;;;;;;4.63;1.15;;;;;;;5.61;68.88;95360.97;2570589;28;20163;-88
2023/01/17 01:57:16;;;;;;;2.25;0.90;;;;;;;5.57;69.61;95358.66;2571670;28;20465;-89
2023/01/17 01:58:36;;;;;;;1.45;0.80;;;;;;;5.61;69.36;95362.75;2571015;28;20857;-89
2023/01/17 01:59:57;;;;;;;1.02;0.60;;;;;;;5.47;69.63;95361.78;2572467;28;20395;-90
2023/01/17 02:01:14;;;;;;;1.77;0.50;;;;;;;5.51;69.51;95363.28;2571253;28;20070;-88
2023/01/17 02:02:30;;;;;;;1.55;0.60;;;;;;;5.68;69.02;95371.03;2571664;28;20050;-88
2023/01/17 02:03:47;;;;;;;1.05;0.60;;;;;;;5.69;69.21;95357.94;2572033;28;20112;-88
2023/01/17 02:05:03;;;;;;;0.55;0.50;;;;;;;5.68;68.43;95358.03;2571429;28;20062;-89
2023/01/17 02:06:38;;;;;;;1.25;0.70;;;;;;;5.60;68.94;95366.28;2571315;28;20051;-87
2023/01/17 02:08:06;;;;;;;1.70;0.43;;;;;;;5.57;69.48;95369.88;2570562;28;20042;-89
2023/01/17 02:09:23;;;;;;;0.57;0.40;;;;;;;5.42;70.03;95368.16;2572107;28;20060;-87
2023/01/17 02:10:40;;;;;;;0.25;0.22;;;;;;;5.16;69.69;95373.88;2571267;28;20594;-88
2023/01/17 02:11:56;;;;;;;3.10;0.50;;;;;;;5.31;69.17;95364.41;2570339;28;20094;-87
2023/01/17 02:13:14;;;;;;;1.45;0.50;;;;;;;5.33;69.38;95362.56;2570566;28;20394;-90
2023/01/17 02:14:30;;;;;;;2.22;0.30;;;;;;;5.50;68.56;95376.31;2571681;28;20046;-90
2023/01/17 02:16:10;;;;;;;1.13;0.70;;;;;;;5.55;67.86;95376.91;2570462;28;20050;-88
2023/01/17 02:17:28;;;;;;;0.43;0.40;;;;;;;5.52;68.42;95374.50;2573297;28;20485;-90
2023/01/17 02:19:02;;;;;;;0.40;0.40;;;;;;;5.63;67.02;95366.09;2569652;28;20049;-90
2023/01/17 02:20:37;;;;;;;0.75;0.40;;;;;;;5.49;66.62;95375.50;2570336;28;20054;-89
2023/01/17 02:22:18;;;;;;;0.80;0.28;;;;;;;5.45;68.78;95374.03;2570987;28;20047;-88
2023/01/17 02:24:02;;;;;;;0.30;0.20;;;;;;;5.50;67.17;95377.19;2562334;28;20492;-87
2023/01/17 02:26:00;;;;;;;0.30;0.30;;;;;;;5.41;68.63;95372.50;2571662;28;20054;-88
2023/01/17 02:27:34;;;;;;;1.33;0.30;;;;;;;5.42;66.96;95376.78;2570773;28;20097;-91
2023/01/17 02:29:23;;;;;;;1.10;0.55;;;;;;;5.61;68.00;95380.94;2572999;28;20046;-89
2023/01/17 02:30:44;;;;;;;0.57;0.52;;;;;;;5.67;65.54;95388.34;2570205;28;21195;-91
2023/01/17 02:32:00;;;;;;;1.00;0.50;;;;;;;5.68;65.77;95389.19;2571453;28;20484;-86
2023/01/17 02:33:41;;;;;;;2.10;0.65;;;;;;;5.65;66.28;95397.97;2571206;28;20082;-90
2023/01/17 02:35:28;;;;;;;0.55;0.50;;;;;;;5.45;67.52;95389.59;2570669;28;20058;-89
2023/01/17 02:37:06;;;;;;;0.55;0.40;;;;;;;5.37;68.10;95395.19;2572662;28;20054;-87
2023/01/17 02:38:50;;;;;;;1.17;0.65;;;;;;;5.28;66.85;95393.13;2570158;28;20133;-87
2023/01/17 02:40:18;;;;;;;0.90;0.52;;;;;;;5.51;67.06;95389.22;2571357;28;20112;-88
2023/01/17 02:41:36;;;;;;;0.30;0.30;;;;;;;5.55;67.09;95394.22;2570032;28;20054;-89
2023/01/17 02:42:57;;;;;;;0.40;0.40;;;;;;;5.55;66.35;95399.44;2572544;28;20485;-88
2023/01/17 02:44:17;;;;;;;1.00;0.60;;;;;;;5.59;67.15;95401.75;2571312;28;20053;-89
2023/01/17 02:45:33;;;;;;;1.05;0.45;;;;;;;5.62;65.99;95398.16;2571040;28;20161;-88
2023/01/17 02:46:52;;;;;;;2.45;0.50;;;;;;;5.68;66.49;95399.56;2570729;28;20050;-87
2023/01/17 02:48:12;;;;;;;0.38;0.30;;;;;;;5.64;66.22;95404.91;2571109;28;20481;-87
2023/01/17 02:49:30;;;;;;;2.10;0.60;;;;;;;5.86;64.50;95401.09;2570369;28;20059;-89
2023/01/17 02:51:12;;;;;;;0.55;0.43;;;;;;;5.65;66.31;95404.00;2570274;28;20404;-87
2023/01/17 02:52:43;;;;;;;0.90;0.60;;;;;;;5.82;65.04;95401.34;2570470;28;20055;-87
2023/01/17 02:54:17;;;;;;;0.85;0.57;;;;;;;5.64;65.00;95394.53;2571623;28;20065;-89
2023/01/17 02:55:44;;;;;;;1.00;0.60;;;;;;;5.41;66.91;95401.03;2571311;28;20046;-87
2023/01/17 02:57:22;;;;;;;0.88;0.40;;;;;;;5.46;65.73;95411.16;2570587;28;20133;-88
2023/01/17 02:59:12;;;;;;;1.08;0.55;;;;;;;5.49;67.14;95401.47;2572131;28;20054;-89
2023/01/17 03:00:53;;;;;;;0.45;0.43;;;;;;;5.36;67.64;95405.66;2571145;28;20147;-88
2023/01/17 03:02:31;;;;;;;0.65;0.47;;;;;;;5.47;66.65;95407.66;2569624;28;20121;-87
2023/01/17 03:03:53;;;;;;;0.20;0.20;;;;;;;5.46;67.03;95412.00;2569139;28;20055;-88
2023/01/17 03:05:12;;;;;;;;;;;;;;;5.62;65.97;95411.97;2571087;28;20050;-88
2023/01/17 03:06:36;;;;;;;0.40;0.30;;;;;;;5.51;64.90;95403.94;2570448;28;20021;-87
2023/01/17 03:07:53;;;;;;;0.40;0.40;;;;;;;5.71;64.05;95413.19;2570064;28;20096;-88
2023/01/17 03:09:09;;;;;;;0.73;0.50;;;;;;;5.49;66.74;95409.25;2572553;28;20462;-93
2023/01/17 03:10:25;;;;;;;1.27;0.43;;;;;;;5.37;66.69;95402.16;2572738;28;20673;-88
2023/01/17 03:11:42;;;;;;;0.30;0.30;;;;;;;5.44;65.69;95408.66;2575173;28;20054;-87
2023/01/17 03:12:59;;;;;;;0.30;0.30;;;;;;;5.42;64.97;95423.47;2572357;28;20496;-88
2023/01/17 03:14:15;;;;;;;0.43;0.38;;;;;;;5.37;64.96;95418.53;2570763;28;20047;-88
2023/01/17 03:15:30;;;;;;;0.30;0.20;;;;;;;5.42;64.40;95420.88;2572533;28;20061;-87
2023/01/17 03:16:46;;;;;;;1.95;0.50;;;;;;;5.45;66.21;95425.06;2571824;28;20532;-87
2023/01/17 03:18:10;;;;;;;1.65;0.40;;;;;;;5.49;65.86;95424.81;2570737;28;20527;-89
2023/01/17 03:19:26;;;;;;;0.65;0.55;;;;;;;5.42;66.39;95426.06;2571475;28;20492;-87
2023/01/17 03:20:42;;;;;;;0.30;0.30;;;;;;;5.44;66.26;95429.41;2570596;28;20104;-87
2023/01/17 03:21:57;;;;;;;0.98;0.40;;;;;;;5.44;66.91;95428.59;2571088;28;20786;-88
2023/01/17 03:23:13;;;;;;;0.60;0.50;;;;;;;5.49;66.23;95431.75;2571888;28;20051;-89
2023/01/17 03:24:28;;;;;;;1.95;0.68;;;;;;;5.71;65.68;95433.13;2569496;28;20060;-87
2023/01/17 03:25:44;;;;;;;1.95;0.47;;;;;;;5.56;65.90;95429.63;2571205;28;20081;-87
2023/01/17 03:26:59;;;;;;;0.52;0.30;;;;;;;5.51;67.06;95432.50;2571025;28;20046;-88
2023/01/17 03:28:15;;;;;;;0.60;0.50;;;;;;;5.69;65.92;95430.63;2571556;28;20050;-91
2023/01/17 03:29:30;;;;;;;0.65;0.40;;;;;;;5.74;65.25;95433.81;2570253;28;20497;-90
2023/01/17 03:30:46;;;;;;;3.30;0.43;;;;;;;5.60;66.31;95426.78;2570640;28;20254;-88
2023/01/17 03:32:02;;;;;;;1.30;0.30;;;;;;;5.59;66.48;95432.09;2571050;28;20406;-88
2023/01/17 03:33:17;;;;;;;0.40;0.40;;;;;;;5.80;65.48;95428.25;2570612;28;20046;-88
2023/01/17 03:34:33;;;;;;;1.58;0.40;;;;;;;5.74;66.01;95433.81;2570780;28;20067;-88
2023/01/17 03:35:49;;;;;;;1.05;0.40;;;;;;;5.82;65.55;95427.31;2572162;28;20133;-90
2023/01/17 03:37:04;;;;;;;0.47;0.40;;;;;;;5.71;64.89;95427.94;2570764;28;20053;-88
2023/01/17 03:38:20;;;;;;;1.58;0.57;;;;;;;5.56;65.97;95433.09;2569692;28;20061;-87
2023/01/17 03:39:35;;;;;;;0.65;0.57;;;;;;;5.69;65.69;95432.41;2570648;28;20051;-87
2023/01/17 03:40:51;;;;;;;0.57;0.50;;;;;;;5.70;65.51;95440.06;2570047;28;20457;-90
2023/01/17 03:42:07;;;;;;;0.77;0.50;;;;;;;5.78;64.75;95432.69;2572238;28;20054;-88
2023/01/17 03:43:22;;;;;;;0.93;0.50;;;;;;;5.68;65.71;95439.31;2570798;28;20050;-87
2023/01/17 03:44:38;;;;;;;0.95;0.60;;;;;;;5.79;65.19;95443.91;2570578;28;20082;-88
2023/01/17 03:46:01;;;;;;;1.95;0.50;;;;;;;5.75;65.46;95453.66;2572291;28;20061;-87
2023/01/17 03:47:17;;;;;;;3.15;0.40;;;;;;;5.57;65.99;95446.88;2570820;28;20084;-88
2023/01/17 03:48:32;;;;;;;1.02;0.60;;;;;;;5.50;65.94;95442.06;2569519;28;20055;-88
2023/01/17 03:49:49;;;;;;;1.50;0.70;;;;;;;5.74;64.69;95446.78;2569662;28;20184;-88
2023/01/17 03:51:05;;;;;;;2.88;0.38;;;;;;;5.54;65.32;95441.88;2569907;28;20078;-87
2023/01/17 03:52:20;;;;;;;0.98;0.70;;;;;;;5.63;63.95;95446.56;2569940;28;20540;-88
2023/01/17 03:53:36;;;;;;;0.50;0.40;;;;;;;5.67;65.37;95450.63;2569834;28;20051;-89
2023/01/17 03:54:52;;;;;;;0.88;0.30;;;;;;;5.39;64.02;95449.59;2569585;28;20079;-88
2023/01/17 03:56:08;;;;;;;0.52;0.50;;;;;;;5.56;65.38;95453.84;2570069;28;20054;-87
2023/01/17 03:57:23;;;;;;;2.47;0.60;;;;;;;5.40;66.01;95453.03;2569943;28;20202;-88
2023/01/17 03:58:39;;;;;;;0.38;0.30;;;;;;;5.12;66.30;95452.78;2570672;28;20130;-88
2023/01/17 03:59:55;;;;;;;1.65;0.30;;;;;;;5.30;64.99;95453.53;2571410;28;20050;-88
2023/01/17 04:01:11;;;;;;;0.52;0.28;;;;;;;5.33;64.82;95462.91;2572081;28;20082;-86
2023/01/17 04:02:26;;;;;;;0.70;0.40;;;;;;;5.23;66.88;95460.81;2568675;28;20054;-88
2023/01/17 04:03:42;;;;;;;0.45;0.38;;;;;;;5.15;65.98;95450.00;2570329;28;20050;-86
2023/01/17 04:04:58;;;;;;;0.52;0.43;;;;;;;5.10;66.17;95459.81;2569248;28;20058;-86
2023/01/17 04:06:13;;;;;;;0.40;0.40;;;;;;;5.17;65.74;95461.16;2569071;28;20102;-88
2023/01/17 04:07:29;;;;;;;1.17;0.47;;;;;;;5.17;64.90;95463.75;2570359;28;20051;-87
2023/01/17 04:08:44;;;;;;;0.30;0.30;;;;;;;5.26;66.29;95464.16;2569753;28;20053;-88
2023/01/17 04:10:00;;;;;;;0.88;0.50;;;;;;;4.94;65.31;95462.38;2570556;28;20078;-86
2023/01/17 04:11:16;;;;;;;0.88;0.50;;;;;;;5.13;66.07;95458.81;2570695;28;20072;-87
2023/01/17 04:12:31;;;;;;;0.70;0.40;;;;;;;5.07;65.79;95460.81;2569777;28;20050;-89
2023/01/17 04:13:47;;;;;;;0.52;0.43;;;;;;;5.02;65.29;95460.22;2569932;28;20061;-87
2023/01/17 04:15:03;;;;;;;0.60;0.30;;;;;;;4.93;65.76;95455.53;2571085;28;20070;-87
2023/01/17 04:16:21;;;;;;;0.55;0.55;;;;;;;4.90;65.80;95466.06;2571337;28;20051;-89
2023/01/17 04:17:37;;;;;;;0.50;0.35;;;;;;;5.01;65.64;95466.34;2572185;28;20516;-88
2023/01/17 04:18:53;;;;;;;0.90;0.30;;;;;;;5.07;66.03;95459.97;2571081;28;20058;-86
2023/01/17 04:20:17;;;;;;;1.63;0.47;;;;;;;5.19;66.17;95464.50;2572695;28;20062;-86
2023/01/17 04:21:32;;;;;;;0.65;0.43;;;;;;;5.16;66.53;95467.25;2572795;28;20053;-89
2023/01/17 04:22:48;;;;;;;0.98;0.40;;;;;;;5.21;65.88;95469.59;2572536;28;20050;-90
2023/01/17 04:24:04;;;;;;;0.93;0.35;;;;;;;5.24;65.94;95469.44;2573434;28;20061;-88
2023/01/17 04:25:19;;;;;;;0.50;0.50;;;;;;;5.06;65.50;95472.09;2571735;28;20062;-86
2023/01/17 04:26:35;;;;;;;1.25;0.40;;;;;;;5.15;64.02;95473.34;2573117;28;20404;-87
2023/01/17 04:27:52;;;;;;;0.60;0.60;;;;;;;5.17;63.78;95468.94;2572895;28;20452;-86
2023/01/17 04:29:07;;;;;;;0.47;0.43;;;;;;;5.10;66.31;95467.59;2571472;28;20621;-88
2023/01/17 04:30:24;;;;;;;1.30;0.40;;;;;;;5.05;66.11;95459.25;2572549;28;20237;-89
2023/01/17 04:31:39;;;;;;;1.05;0.60;;;;;;;4.95;65.05;95470.09;2570644;28;20145;-88
2023/01/17 04:32:55;;;;;;;0.55;0.43;;;;;;;5.03;65.14;95468.81;2571594;28;20050;-88
2023/01/17 04:34:11;;;;;;;0.40;0.40;;;;;;;5.24;65.34;95474.63;2573179;28;20050;-88
2023/01/17 04:35:28;;;;;;;3.72;0.60;;;;;;;5.26;65.12;95470.19;2572727;28;20078;-86
2023/01/17 04:36:44;;;;;;;1.90;0.70;;;;;;;5.15;64.23;95464.75;2573204;28;20492;-87
2023/01/17 04:38:00;;;;;;;1.77;0.40;;;;;;;5.15;63.38;95469.94;2573667;28;20074;-87
2023/01/17 04:39:16;;;;;;;1.40;0.57;;;;;;;5.28;64.00;95464.91;2573667;28;20113;-88
2023/01/17 04:40:31;;;;;;;0.75;0.55;;;;;;;5.19;63.82;95467.09;2571465;28;20492;-88
2023/01/17 04:41:47;;;;;;;0.77;0.50;;;;;;;5.06;63.81;95461.72;2573354;28;20813;-87
2023/01/17 04:43:02;;;;;;;0.65;0.65;;;;;;;5.26;64.24;95456.38;2576610;28;20137;-87
2023/01/17 04:44:18;;;;;;;0.60;0.50;;;;;;;5.20;64.95;95460.16;2574375;28;20059;-87
2023/01/17 04:45:34;;;;;;;0.85;0.60;;;;;;;5.30;63.10;95458.72;2572208;28;20046;-86
2023/01/17 04:46:49;;;;;;;0.88;0.70;;;;;;;5.10;65.54;95457.22;2572255;28;20049;-86
2023/01/17 04:48:05;;;;;;;1.25;0.60;;;;;;;5.28;64.96;95454.53;2573423;28;20042;-86
2023/01/17 04:49:21;;;;;;;1.70;0.60;;;;;;;5.20;65.31;95458.41;2570805;28;20124;-87
2023/01/17 04:50:38;;;;;;;1.95;0.65;;;;;;;5.29;64.69;95463.97;2571219;28;20051;-88
2023/01/17 04:51:53;;;;;;;1.10;0.60;;;;;;;5.42;64.10;95457.19;2573396;28;20145;-86
2023/01/17 04:53:09;;;;;;;1.48;0.70;;;;;;;5.42;65.15;95464.97;2571421;28;20051;-86
2023/01/17 04:54:25;;;;;;;1.40;0.73;;;;;;;5.32;64.84;95461.25;2572450;28;20082;-86
2023/01/17 04:55:44;;;;;;;1.23;0.70;;;;;;;5.39;64.97;95459.97;2573445;28;20055;-86
2023/01/17 04:56:59;;;;;;;1.80;0.80;;;;;;;5.35;63.82;95461.88;2573391;28;20375;-87
2023/01/17 04:58:15;;;;;;;1.90;0.70;;;;;;;5.13;66.08;95462.22;2571160;28;20054;-87
2023/01/17 04:59:31;;;;;;;1.10;0.73;;;;;;;5.16;64.60;95463.84;2572863;28;20055;-92
2023/01/17 05:00:49;;;;;;;2.35;0.47;;;;;;;4.95;64.67;95467.50;2573025;28;20051;-86
2023/01/17 05:02:05;;;;;;;0.68;0.60;;;;;;;5.18;65.19;95469.78;2571548;28;20348;-88
2023/01/17 05:03:21;;;;;;;1.65;0.68;;;;;;;4.85;66.82;95479.28;2571900;28;20089;-86
2023/01/17 05:04:37;;;;;;;1.83;0.75;;;;;;;4.98;66.18;95469.09;2571617;28;20054;-88
2023/01/17 05:05:53;;;;;;;0.77;0.60;;;;;;;5.01;66.71;95478.44;2572360;28;20050;-88
2023/01/17 05:07:09;;;;;;;0.50;0.50;;;;;;;4.88;66.64;95479.09;2571822;28;20054;-86
2023/01/17 05:08:24;;;;;;;0.57;0.47;;;;;;;4.77;66.28;95477.09;2570758;28;20092;-87
2023/01/17 05:09:42;;;;;;;0.55;0.50;;;;;;;4.79;66.05;95485.63;2571132;28;20055;-87
2023/01/17 05:10:58;;;;;;;1.67;0.55;;;;;;;4.84;65.90;95487.97;2572102;28;20144;-88
2023/01/17 05:12:13;;;;;;;0.30;0.30;;;;;;;4.90;65.69;95481.63;2570768;28;20406;-88
2023/01/17 05:13:29;;;;;;;0.93;0.50;;;;;;;4.91;65.43;95493.66;2569738;28;20051;-88
2023/01/17 05:14:44;;;;;;;1.27;0.85;;;;;;;4.81;65.74;95494.13;2570322;28;20054;-89
2023/01/17 05:16:00;;;;;;;2.53;0.52;;;;;;;4.91;65.58;95491.94;2571489;28;20103;-88
2023/01/17 05:17:16;;;;;;;1.23;0.52;;;;;;;5.01;65.53;95496.59;2571034;28;20054;-89
2023/01/17 05:18:31;;;;;;;1.48;0.60;;;;;;;5.08;65.28;95490.19;2572746;28;20452;-88
2023/01/17 05:19:47;;;;;;;0.35;0.35;;;;;;;4.90;65.71;95494.59;2570381;28;20488;-88
2023/01/17 05:21:03;;;;;;;1.80;0.45;;;;;;;4.90;65.80;95500.63;2572278;28;20055;-90
2023/01/17 05:22:18;;;;;;;0.43;0.43;;;;;;;4.97;65.63;95508.06;2571096;28;20456;-89
2023/01/17 05:23:34;;;;;;;1.20;0.75;;;;;;;4.87;66.80;95505.94;2572624;28;20047;-88
2023/01/17 05:24:49;;;;;;;0.45;0.40;;;;;;;4.73;65.66;95505.84;2571945;28;20050;-90
2023/01/17 05:26:05;;;;;;;2.22;0.50;;;;;;;4.69;66.67;95499.16;2570473;28;20065;-88
2023/01/17 05:27:20;;;;;;;2.25;0.90;;;;;;;4.71;66.48;95507.66;2571355;28;20287;-88
2023/01/17 05:28:36;;;;;;;0.70;0.70;;;;;;;4.72;66.97;95507.59;2572435;28;20047;-88
2023/01/17 05:29:52;;;;;;;0.85;0.60;;;;;;;4.46;67.76;95504.59;2573638;28;20081;-88
2023/01/17 05:31:07;;;;;;;1.30;0.68;;;;;;;4.51;68.47;95506.97;2571561;28;20046;-86
2023/01/17 05:32:23;;;;;;;0.90;0.68;;;;;;;4.67;68.03;95512.16;2570038;28;20448;-87
2023/01/17 05:33:39;;;;;;;1.52;0.90;;;;;;;4.67;67.15;95514.75;2572170;28;20062;-87
2023/01/17 05:34:54;;;;;;;2.58;0.70;;;;;;;4.30;68.42;95509.72;2571258;28;20046;-86
2023/01/17 05:36:10;;;;;;;0.93;0.73;;;;;;;4.31;68.76;95516.56;2570887;28;20418;-89
2023/01/17 05:37:26;;;;;;;1.65;0.82;;;;;;;4.52;68.53;95514.63;2571367;28;20081;-87
2023/01/17 05:38:41;;;;;;;0.40;0.40;;;;;;;4.41;68.74;95521.28;2571969;28;20054;-88
2023/01/17 05:39:57;;;;;;;0.57;0.52;;;;;;;4.38;68.85;95519.69;2570172;28;20548;-88
2023/01/17 05:41:12;;;;;;;0.57;0.52;;;;;;;4.28;69.23;95521.91;2571464;28;20046;-89
2023/01/17 05:42:28;;;;;;;1.20;0.57;;;;;;;4.34;68.42;95520.75;2575804;28;20074;-90
2023/01/17 05:43:44;;;;;;;1.17;0.68;;;;;;;4.43;68.44;95522.03;2574433;28;20074;-90
2023/01/17 05:44:59;;;;;;;0.80;0.60;;;;;;;4.46;67.67;95527.91;2572004;28;20125;-89
2023/01/17 05:46:16;;;;;;;1.25;0.55;;;;;;;4.27;68.61;95520.22;2571075;28;20051;-89
2023/01/17 05:47:32;;;;;;;0.60;0.52;;;;;;;4.15;68.54;95536.38;2573084;28;20465;-88
2023/01/17 05:48:48;;;;;;;1.45;0.52;;;;;;;4.21;69.08;95533.50;2571997;28;20042;-87
2023/01/17 05:50:04;;;;;;;0.40;0.40;;;;;;;4.03;69.71;95535.22;2571121;28;20395;-87
2023/01/17 05:51:19;;;;;;;0.75;0.40;;;;;;;4.12;69.52;95532.19;2571229;28;20480;-89
2023/01/17 05:52:35;;;;;;;1.20;0.70;;;;;;;4.29;69.08;95540.88;2570972;28;20066;-88
2023/01/17 05:53:51;;;;;;;0.82;0.45;;;;;;;4.32;68.91;95538.13;2570077;28;20465;-91
2023/01/17 05:55:07;;;;;;;2.65;0.70;;;;;;;4.20;69.59;95539.59;2572215;28;20046;-88
2023/01/17 05:56:22;;;;;;;1.65;0.60;;;;;;;3.97;70.48;95546.72;2570227;28;20189;-87
2023/01/17 05:57:38;;;;;;;0.60;0.60;;;;;;;3.89;71.33;95549.69;2570217;28;20050;-87
2023/01/17 05:58:54;;;;;;;0.65;0.47;;;;;;;4.05;70.49;95548.94;2572670;28;20082;-88
2023/01/17 06:00:10;;;;;;;0.80;0.70;;;;;;;3.92;70.63;95551.28;2570231;28;20050;-86
2023/01/17 06:01:26;;;;;;;0.60;0.43;;;;;;;3.91;71.32;95555.63;2570962;28;20105;-89
2023/01/17 06:02:43;;;;;;;0.40;0.40;;;;;;;3.94;70.00;95560.63;2572039;28;20055;-86
2023/01/17 06:03:58;;;;;;;1.73;0.70;;;;;;;3.87;71.75;95558.41;2571240;28;20046;-90
2023/01/17 06:05:15;;;;;;;0.40;0.40;;;;;;;3.94;71.43;95558.06;2571337;28;20066;-87
2023/01/17 06:06:31;;;;;;;0.70;0.50;;;;;;;4.08;70.65;95562.56;2571299;28;20050;-87
2023/01/17 06:07:47;;;;;;;1.90;0.63;;;;;;;4.19;70.18;95561.19;2570864;28;20051;-87
2023/01/17 06:09:03;;;;;;;0.52;0.43;;;;;;;3.96;70.67;95569.16;2571480;28;20053;-86
2023/01/17 06:10:20;;;;;;;1.17;0.63;;;;;;;3.83;70.92;95562.91;2572186;28;20053;-90
2023/01/17 06:11:35;;;;;;;0.93;0.52;;;;;;;3.89;71.26;95570.38;2570310;28;20047;-86
2023/01/17 06:13:20;;;;;;;1.08;0.70;;;;;;;3.73;72.48;95569.44;2569843;28;20846;-87
2023/01/17 06:14:36;;;;;;;3.40;0.77;;;;;;;3.69;72.12;95566.16;2571830;28;20481;-86
2023/01/17 06:15:52;;;;;;;0.70;0.38;;;;;;;3.66;71.75;95561.94;2569857;28;20439;-85
2023/01/17 06:17:07;;;;;;;1.00;0.57;;;;;;;3.88;70.87;95575.63;2571906;28;20058;-92
2023/01/17 06:18:23;;;;;;;0.50;0.40;;;;;;;3.99;70.47;95577.72;2570912;28;20050;-93
2023/01/17 06:19:39;;;;;;;0.95;0.70;;;;;;;4.01;70.66;95570.72;2571718;28;20047;-92
2023/01/17 06:20:55;;;;;;;1.05;0.60;;;;;;;3.62;71.72;95581.13;2573003;28;20050;-92
2023/01/17 06:22:10;;;;;;;0.75;0.40;;;;;;;3.73;71.47;95578.03;2571926;28;20150;-92
2023/01/17 06:23:27;;;;;;;2.85;0.90;;;;;;;3.68;72.17;95574.81;2572623;28;20440;-91
2023/01/17 06:24:42;;;;;;;1.80;0.65;;;;;;;3.63;69.95;95577.63;2572799;28;20078;-93
2023/01/17 06:26:02;;;;;;;0.73;0.70;;;;;;;3.65;71.49;95580.16;2572327;28;20055;-93
2023/01/17 06:27:17;;;;;;;1.58;0.80;;;;;;;3.77;71.06;95587.34;2571283;28;20611;-91
2023/01/17 06:28:33;;;;;;;1.80;0.98;;;;;;;3.74;70.66;95584.06;2571477;28;20046;-92
2023/01/17 06:29:49;;;;;;;2.63;1.00;;;;;;;3.79;71.58;95590.69;2571345;28;20050;-92
2023/01/17 06:31:08;;;;;;;2.15;0.80;;;;;;;3.77;70.51;95595.09;2572432;28;20137;-92
2023/01/17 06:32:24;;;;;;;1.83;0.70;;;;;;;3.67;71.59;95592.09;2574404;28;20159;-92
2023/01/17 06:33:39;;;;;;;1.52;0.70;;;;;;;3.75;71.22;95602.06;2573276;28;20039;-93
2023/01/17 06:34:55;;;;;;;1.85;0.50;;;;;;;3.68;69.25;95592.94;2572566;28;20467;-92
2023/01/17 06:36:11;;;;;;;1.85;0.70;;;;;;;3.49;70.13;95592.94;2571932;28;20206;-94
2023/01/17 06:37:26;;;;;;;0.57;0.57;;;;;;;3.69;68.94;95599.78;2572390;28;20050;-93
2023/01/17 06:38:41;;;;;;;0.60;0.60;;;;;;;3.67;69.22;95604.19;2571454;28;20460;-92
2023/01/17 06:39:57;;;;;;;3.08;0.60;;;;;;;3.57;69.67;95608.97;2572092;28;20090;-92
2023/01/17 06:41:13;;;;;;;1.05;0.68;;;;;;;3.72;68.42;95602.22;2571528;28;20414;-91
2023/01/17 06:42:28;;;;;;;1.23;0.70;;;;;;;3.50;68.62;95607.56;2571736;28;20088;-91
2023/01/17 06:43:44;;;;;;;1.00;0.70;;;;;;;3.40;68.68;95601.97;2572787;28;20105;-92
2023/01/17 06:44:59;;;;;;;0.50;0.50;;;;;;;3.64;67.77;95615.53;2571706;28;21007;-90
2023/01/17 06:46:15;;;;;;;0.65;0.55;;;;;;;3.60;68.21;95614.00;2571876;28;20077;-94
2023/01/17 06:47:31;;;;;;;1.02;0.52;;;;;;;3.58;67.39;95614.97;2571133;28;20050;-88
2023/01/17 06:48:47;;;;;;;0.35;0.30;;;;;;;3.62;67.11;95614.75;2570854;28;20046;-89
2023/01/17 06:50:06;;;;;;;0.70;0.50;;;;;;;3.57;65.54;95618.47;2570062;28;20525;-88
2023/01/17 06:51:22;;;;;;;0.50;0.50;;;;;;;3.72;65.88;95628.09;2571004;28;20131;-88
2023/01/17 06:52:38;;;;;;;0.82;0.50;;;;;;;3.85;65.47;95619.78;2570164;28;20195;-87
2023/01/17 06:53:53;;;;;;;0.93;0.52;;;;;;;3.78;65.49;95627.84;2572376;28;20524;-89
2023/01/17 06:55:09;;;;;;;3.72;0.90;;;;;;;3.53;66.14;95626.38;2570200;28;20058;-88
2023/01/17 06:56:25;;;;;;;0.70;0.43;;;;;;;3.43;65.48;95635.44;2572404;28;20050;-88
2023/01/17 06:57:40;;;;;;;0.50;0.50;;;;;;;3.41;65.96;95632.09;2571384;28;20073;-89
2023/01/17 06:58:56;;;;;;;1.38;0.73;;;;;;;3.46;64.79;95635.31;2570373;28;20051;-90
2023/01/17 07:00:12;;;;;;;0.60;0.60;;;;;;;3.45;65.44;95638.81;2570934;28;20110;-89
2023/01/17 07:01:28;;;;;;;0.40;0.40;;;;;;;3.48;63.36;95643.81;2571436;28;20054;-88
2023/01/17 07:02:46;;;;;;;0.93;0.70;;;;;;;3.58;64.48;95643.44;2570449;28;20921;-89
2023/01/17 07:04:03;;;;;;;1.55;0.65;;;;;;;3.56;63.58;95640.06;2571049;28;20481;-87
2023/01/17 07:05:19;;;;;;;0.68;0.57;;;;;;;3.58;64.10;95639.09;2569717;28;20094;-88
2023/01/17 07:06:35;;;;;;;0.47;0.47;;;;;;;3.45;64.12;95633.63;2570137;28;20114;-89
2023/01/17 07:07:52;;;;;;;0.60;0.32;;;;;;;3.44;63.42;95644.06;2572837;28;20043;-90
2023/01/17 07:09:07;;;;;;;0.65;0.52;;;;;;;3.46;64.29;95650.00;2570176;28;20046;-93
2023/01/17 07:10:23;;;;;;;0.82;0.50;;;;;;;3.32;63.58;95655.78;2571019;28;20093;-89
2023/01/17 07:11:39;;;;;;;2.42;0.80;;;;;;;3.38;63.18;95661.50;2570604;28;20050;-89
2023/01/17 07:13:01;;;;;;;0.95;0.50;;;;;;;3.50;64.01;95656.69;2569586;28;20055;-88
2023/01/17 07:14:16;;;;;;;0.63;0.63;;;;;;;3.60;62.36;95655.38;2569747;28;20482;-89
2023/01/17 07:15:32;;;;;;;3.08;0.68;;;;;;;3.42;61.88;95657.03;2571360;28;20124;-90
2023/01/17 07:16:48;;;;;;;0.40;0.32;;;;;;;3.33;63.93;95654.84;2571353;28;20046;-89
2023/01/17 07:18:04;;;;;;;1.42;0.52;;;;;;;3.27;62.36;95655.97;2572356;28;20093;-88
2023/01/17 07:19:21;;;;;;;0.63;0.60;;;;;;;3.45;63.51;95651.72;2569170;28;20051;-88
2023/01/17 07:20:37;;;;;;;0.93;0.60;;;;;;;3.29;63.26;95654.19;2570925;28;20088;-89
2023/01/17 07:21:53;;;;;;;0.93;0.60;;;;;;;3.42;61.59;95659.63;2571167;28;20615;-91
2023/01/17 07:23:08;;;;;;;0.60;0.40;;;;;;;3.36;62.59;95654.75;2571781;28;20138;-89
2023/01/17 07:24:24;;;;;;;0.82;0.50;;;;;;;3.30;59.75;95671.38;2571002;28;20149;-89
2023/01/17 07:25:40;;;;;;;0.88;0.63;;;;;;;3.45;59.97;95671.59;2571652;28;20129;-88
2023/01/17 07:26:55;;;;;;;1.30;0.77;;;;;;;3.28;58.79;95667.16;2571134;28;20042;-89
2023/01/17 07:28:11;;;;;;;1.02;0.50;;;;;;;3.16;60.47;95671.13;2571715;28;20050;-88
2023/01/17 07:29:26;;;;;;;1.52;0.60;;;;;;;3.43;60.48;95671.66;2571761;28;20046;-88
2023/01/17 07:30:42;;;;;;;0.22;0.22;;;;;;;3.28;60.92;95675.75;2569485;28;20086;-93
2023/01/17 07:31:58;;;;;;;0.95;0.70;;;;;;;3.27;60.65;95668.91;2569400;28;20050;-90
2023/01/17 07:33:13;;;;;;;1.05;0.63;;;;;;;3.25;61.11;95676.75;2574980;28;20160;-89